createdAt,value
2017-11-30T00:00:02.131Z,99423
2017-11-30T00:02:30.397Z,99419
2017-11-30T00:04:59.439Z,99417
2017-11-30T00:07:27.845Z,99414
2017-11-30T00:09:56.885Z,99409
2017-11-30T00:12:25.991Z,99412
2017-11-30T00:14:54.276Z,99408
2017-11-30T00:17:22.616Z,99412
2017-11-30T00:19:51.024Z,99410
2017-11-30T00:22:20.055Z,99404
2017-11-30T00:24:48.312Z,99405
2017-11-30T00:27:17.384Z,99387
2017-11-30T00:29:45.640Z,99394
2017-11-30T00:32:13.881Z,99388
2017-11-30T00:34:42.194Z,99379
2017-11-30T00:37:10.445Z,99385
2017-11-30T00:39:38.751Z,99387
2017-11-30T00:42:07.130Z,99382
2017-11-30T00:44:35.371Z,99378
2017-11-30T00:47:03.616Z,99381
2017-11-30T00:49:32.863Z,99388
2017-11-30T00:52:01.095Z,99385
2017-11-30T00:54:29.396Z,99382
2017-11-30T00:56:57.704Z,99386
2017-11-30T00:59:25.951Z,99380
2017-11-30T01:01:54.202Z,99376
2017-11-30T01:04:22.463Z,99372
2017-11-30T01:06:51.518Z,99380
2017-11-30T01:09:19.760Z,99371
2017-11-30T01:11:48.005Z,99375
2017-11-30T01:14:17.057Z,99376
2017-11-30T01:16:45.450Z,99376
2017-11-30T01:19:15.185Z,99371
2017-11-30T01:21:43.505Z,99380
2017-11-30T01:24:11.772Z,99372
2017-11-30T01:26:40.043Z,99373
2017-11-30T01:29:08.333Z,99375
2017-11-30T01:31:36.606Z,99365
2017-11-30T01:34:05.005Z,99363
2017-11-30T01:36:33.478Z,99357
2017-11-30T01:39:01.761Z,99355
2017-11-30T01:41:30.019Z,99355
2017-11-30T01:43:58.332Z,99351
2017-11-30T01:46:26.589Z,99353
2017-11-30T01:48:54.905Z,99354
2017-11-30T01:51:23.890Z,99361
2017-11-30T01:53:52.934Z,99351
2017-11-30T01:56:21.337Z,99360
2017-11-30T01:58:49.599Z,99349
2017-11-30T02:01:17.865Z,99350
2017-11-30T02:03:46.302Z,99348
2017-11-30T02:06:14.524Z,99341
2017-11-30T02:08:42.785Z,99333
2017-11-30T02:11:11.106Z,99331
2017-11-30T02:13:40.120Z,99328
2017-11-30T02:16:09.119Z,99326
2017-11-30T02:18:37.462Z,99325
2017-11-30T02:21:05.722Z,99335
2017-11-30T02:23:33.967Z,99339
2017-11-30T02:26:02.257Z,99341
2017-11-30T02:28:30.574Z,99333
2017-11-30T02:30:58.948Z,99330
2017-11-30T02:33:27.194Z,99328
2017-11-30T02:35:55.443Z,99331
2017-11-30T02:38:23.765Z,99323
2017-11-30T02:40:52.029Z,99336
2017-11-30T02:43:20.286Z,99316
2017-11-30T02:45:48.650Z,99321
2017-11-30T02:48:16.901Z,99313
2017-11-30T02:50:45.940Z,99304
2017-11-30T02:53:14.284Z,99306
2017-11-30T02:55:42.541Z,99292
2017-11-30T02:58:11.560Z,99291
2017-11-30T03:00:39.846Z,99289
2017-11-30T03:03:08.126Z,99289
2017-11-30T03:05:38.057Z,99273
2017-11-30T03:08:06.314Z,99277
2017-11-30T03:10:34.590Z,99277
2017-11-30T03:13:03.013Z,99281
2017-11-30T03:15:31.286Z,99281
2017-11-30T03:17:59.711Z,99278
2017-11-30T03:20:28.735Z,99265
2017-11-30T03:22:56.996Z,99284
2017-11-30T03:25:25.384Z,99279
2017-11-30T03:27:54.052Z,99289
2017-11-30T03:30:22.333Z,99293
2017-11-30T03:32:50.602Z,99276
2017-11-30T03:35:18.953Z,99283
2017-11-30T03:37:47.976Z,99269
2017-11-30T03:40:16.281Z,99268
2017-11-30T03:42:44.596Z,99261
2017-11-30T03:45:13.864Z,99261
2017-11-30T03:47:42.125Z,99255
2017-11-30T03:50:10.438Z,99254
2017-11-30T03:52:38.696Z,99249
2017-11-30T03:55:06.960Z,99255
2017-11-30T03:57:35.435Z,99255
2017-11-30T04:00:03.667Z,99251
2017-11-30T04:02:31.923Z,99255
2017-11-30T04:05:01.030Z,99257
2017-11-30T04:07:30.090Z,99250
2017-11-30T04:09:58.334Z,99254
2017-11-30T04:12:27.224Z,99243
2017-11-30T04:14:55.523Z,99238
2017-11-30T04:17:23.793Z,99231
2017-11-30T04:19:52.249Z,99225
2017-11-30T04:22:20.546Z,99228
2017-11-30T04:24:48.791Z,99235
2017-11-30T04:27:17.075Z,99229
2017-11-30T04:29:45.449Z,99231
2017-11-30T04:32:14.481Z,99232
2017-11-30T04:34:42.720Z,99240
2017-11-30T04:37:11.091Z,99223
2017-11-30T04:39:39.338Z,99217
2017-11-30T04:42:08.331Z,99213
2017-11-30T04:44:36.638Z,99217
2017-11-30T04:47:04.894Z,99224
2017-11-30T04:49:33.161Z,99243
2017-11-30T04:52:02.427Z,99224
2017-11-30T04:54:30.695Z,99217
2017-11-30T04:56:58.961Z,99212
2017-11-30T04:59:27.371Z,99218
2017-11-30T05:01:56.472Z,99222
2017-11-30T05:04:25.535Z,99227
2017-11-30T05:06:53.853Z,99223
2017-11-30T05:09:22.884Z,99216
2017-11-30T05:11:51.154Z,99224
2017-11-30T05:14:20.268Z,99219
2017-11-30T05:16:48.506Z,99218
2017-11-30T05:19:17.575Z,99208
2017-11-30T05:21:45.853Z,99204
2017-11-30T05:24:14.098Z,99198
2017-11-30T05:26:42.461Z,99192
2017-11-30T05:29:10.733Z,99204
2017-11-30T05:31:39.051Z,99202
2017-11-30T05:34:08.152Z,99196
2017-11-30T05:36:37.165Z,99209
2017-11-30T05:39:05.520Z,99197
2017-11-30T05:41:33.964Z,99184
2017-11-30T05:44:03.516Z,99180
2017-11-30T05:46:32.676Z,99172
2017-11-30T05:49:01.448Z,99167
2017-11-30T05:51:29.783Z,99168
2017-11-30T05:53:58.871Z,99162
2017-11-30T05:56:27.933Z,99152
2017-11-30T05:58:56.206Z,99154
2017-11-30T06:01:24.524Z,99149
2017-11-30T06:03:53.684Z,99144
2017-11-30T06:06:21.989Z,99153
2017-11-30T06:08:51.018Z,99153
2017-11-30T06:11:19.342Z,99151
2017-11-30T06:13:47.596Z,99148
2017-11-30T06:16:15.938Z,99154
2017-11-30T06:18:44.248Z,99148
2017-11-30T06:21:12.523Z,99146
2017-11-30T06:23:40.944Z,99145
2017-11-30T06:26:09.187Z,99152
2017-11-30T06:28:37.450Z,99162
2017-11-30T06:31:05.766Z,99162
2017-11-30T06:33:34.124Z,99163
2017-11-30T06:36:02.416Z,99163
2017-11-30T06:38:30.705Z,99162
2017-11-30T06:41:00.183Z,99165
2017-11-30T06:43:28.452Z,99172
2017-11-30T06:45:56.727Z,99165
2017-11-30T06:48:25.027Z,99165
2017-11-30T06:50:54.115Z,99163
2017-11-30T06:53:23.235Z,99167
2017-11-30T06:55:51.570Z,99169
2017-11-30T06:58:19.867Z,99165
2017-11-30T07:00:48.154Z,99167
2017-11-30T07:03:17.274Z,99164
2017-11-30T07:05:45.549Z,99161
2017-11-30T07:08:13.817Z,99168
2017-11-30T07:10:42.100Z,99157
2017-11-30T07:13:10.375Z,99160
2017-11-30T07:15:38.712Z,99165
2017-11-30T07:18:07.030Z,99162
2017-11-30T07:20:35.305Z,99166
2017-11-30T07:23:03.640Z,99171
2017-11-30T07:25:31.901Z,99175
2017-11-30T07:28:00.261Z,99178
2017-11-30T07:30:30.246Z,99172
2017-11-30T07:32:59.293Z,99174
2017-11-30T07:35:27.576Z,99177
2017-11-30T07:37:55.878Z,99176
2017-11-30T07:40:24.956Z,99172
2017-11-30T07:42:53.231Z,99179
2017-11-30T07:45:21.507Z,99175
2017-11-30T07:47:49.841Z,99164
2017-11-30T07:50:18.176Z,99159
2017-11-30T07:52:47.353Z,99151
2017-11-30T07:55:15.797Z,99153
2017-11-30T07:57:44.817Z,99148
2017-11-30T08:00:13.118Z,99147
2017-11-30T08:02:41.446Z,99153
2017-11-30T08:05:09.717Z,99146
2017-11-30T08:07:38.058Z,99154
2017-11-30T08:10:07.075Z,99157
2017-11-30T08:12:35.620Z,99163
2017-11-30T08:15:04.793Z,99160
2017-11-30T08:17:33.082Z,99158
2017-11-30T08:20:01.361Z,99157
2017-11-30T08:22:29.763Z,99161
2017-11-30T08:24:59.443Z,99159
2017-11-30T08:27:28.682Z,99165
2017-11-30T08:29:56.980Z,99163
2017-11-30T08:32:25.260Z,99163
2017-11-30T08:34:53.604Z,99168
2017-11-30T08:37:21.935Z,99168
2017-11-30T08:39:50.299Z,99159
2017-11-30T08:42:18.616Z,99155
2017-11-30T08:44:47.664Z,99165
2017-11-30T08:47:16.653Z,99155
2017-11-30T08:49:44.956Z,99163
2017-11-30T08:52:13.253Z,99165
2017-11-30T08:54:42.278Z,99158
2017-11-30T08:57:10.763Z,99148
2017-11-30T08:59:39.039Z,99147
2017-11-30T09:02:07.326Z,99150
2017-11-30T09:04:35.686Z,99147
2017-11-30T09:07:03.954Z,99142
2017-11-30T09:09:32.560Z,99139
2017-11-30T09:12:00.913Z,99133
2017-11-30T09:14:29.150Z,99134
2017-11-30T09:16:57.403Z,99129
2017-11-30T09:19:25.738Z,99140
2017-11-30T09:21:54.860Z,99132
2017-11-30T09:24:23.153Z,99125
2017-11-30T09:26:51.542Z,99129
2017-11-30T09:29:20.037Z,99127
2017-11-30T09:31:48.434Z,99122
2017-11-30T09:34:17.634Z,99121
2017-11-30T09:36:46.680Z,99123
2017-11-30T09:39:15.002Z,99122
2017-11-30T09:41:43.384Z,99112
2017-11-30T09:44:12.446Z,99110
2017-11-30T09:46:40.697Z,99102
2017-11-30T09:49:09.309Z,99098
2017-11-30T09:51:37.562Z,99092
2017-11-30T09:54:05.800Z,99096
2017-11-30T09:56:35.482Z,99082
2017-11-30T09:59:03.781Z,99084
2017-11-30T10:01:32.835Z,99066
2017-11-30T10:04:01.181Z,99048
2017-11-30T10:06:29.487Z,99055
2017-11-30T10:08:58.149Z,99058
2017-11-30T10:11:26.829Z,99049
2017-11-30T10:13:55.157Z,99036
2017-11-30T10:16:23.646Z,99041
2017-11-30T10:18:52.699Z,99052
2017-11-30T10:21:20.993Z,99042
2017-11-30T10:23:49.330Z,99039
2017-11-30T10:26:17.577Z,99027
2017-11-30T10:28:46.634Z,99026
2017-11-30T10:31:14.981Z,99010
2017-11-30T10:33:43.269Z,99020
2017-11-30T10:36:11.564Z,99018
2017-11-30T10:38:39.892Z,99011
2017-11-30T10:41:08.173Z,99011
2017-11-30T10:43:36.437Z,99007
2017-11-30T10:46:06.427Z,99015
2017-11-30T10:48:34.690Z,99002
2017-11-30T10:51:02.986Z,98997
2017-11-30T10:53:32.056Z,98995
2017-11-30T10:56:00.300Z,98997
2017-11-30T10:58:28.755Z,98991
2017-11-30T11:00:57.868Z,98987
2017-11-30T11:03:26.175Z,98988
2017-11-30T11:05:54.475Z,98979
2017-11-30T11:08:22.817Z,98977
2017-11-30T11:10:51.154Z,98984
2017-11-30T11:13:19.428Z,98973
2017-11-30T11:15:47.736Z,98978
2017-11-30T11:18:15.974Z,98974
2017-11-30T11:20:44.285Z,98983
2017-11-30T11:23:12.584Z,98973
2017-11-30T11:25:40.894Z,98969
2017-11-30T11:28:10.036Z,98968
2017-11-30T11:30:38.377Z,98972
2017-11-30T11:33:07.434Z,98965
2017-11-30T11:35:35.713Z,98960
2017-11-30T11:38:04.068Z,98970
2017-11-30T11:40:32.390Z,98962
2017-11-30T11:43:00.674Z,98964
2017-11-30T11:45:29.760Z,98965
2017-11-30T11:47:58.081Z,98958
2017-11-30T11:50:26.365Z,98962
2017-11-30T11:52:54.701Z,98953
2017-11-30T11:55:23.718Z,98944
2017-11-30T11:57:52.038Z,98952
2017-11-30T12:00:20.330Z,98953
2017-11-30T12:02:48.598Z,98945
2017-11-30T12:05:16.935Z,98951
2017-11-30T12:07:45.247Z,98952
2017-11-30T12:10:13.577Z,98954
2017-11-30T12:12:41.850Z,98954
2017-11-30T12:15:10.172Z,98944
2017-11-30T12:17:38.404Z,98951
2017-11-30T12:20:06.710Z,98947
2017-11-30T12:22:35.131Z,98953
2017-11-30T12:25:04.170Z,98951
2017-11-30T12:27:32.431Z,98955
2017-11-30T12:30:00.768Z,98955
2017-11-30T12:32:29.810Z,98954
2017-11-30T12:34:58.075Z,98951
2017-11-30T12:37:26.397Z,98954
2017-11-30T12:39:54.692Z,98953
2017-11-30T12:42:23.718Z,98947
2017-11-30T12:44:52.029Z,98956
2017-11-30T12:47:20.361Z,98946
2017-11-30T12:49:49.410Z,98950
2017-11-30T12:52:17.719Z,98956
2017-11-30T12:54:46.787Z,98967
2017-11-30T12:57:15.844Z,98957
2017-11-30T12:59:44.131Z,98961
2017-11-30T13:02:13.655Z,98971
2017-11-30T13:04:42.829Z,98967
2017-11-30T13:07:11.127Z,98975
2017-11-30T13:09:39.372Z,98968
2017-11-30T13:12:08.466Z,98970
2017-11-30T13:14:36.758Z,98973
2017-11-30T13:17:05.020Z,98969
2017-11-30T13:19:33.272Z,98964
2017-11-30T13:22:02.945Z,98967
2017-11-30T13:24:31.197Z,98970
2017-11-30T13:26:59.510Z,98977
2017-11-30T13:29:28.576Z,98964
2017-11-30T13:31:56.911Z,98967
2017-11-30T13:34:25.159Z,98969
2017-11-30T13:36:53.441Z,98975
2017-11-30T13:39:21.739Z,98982
2017-11-30T13:41:49.992Z,98973
2017-11-30T13:44:19.075Z,98982
2017-11-30T13:46:47.350Z,98972
2017-11-30T13:49:15.602Z,98976
2017-11-30T13:51:43.893Z,98982
2017-11-30T13:54:12.122Z,98983
2017-11-30T13:56:40.490Z,98986
2017-11-30T13:59:08.826Z,98992
2017-11-30T14:01:37.090Z,98982
2017-11-30T14:04:05.331Z,98980
2017-11-30T14:06:33.632Z,98976
2017-11-30T14:09:01.909Z,98988
2017-11-30T14:11:30.154Z,98982
2017-11-30T14:13:58.429Z,98978
2017-11-30T14:16:26.646Z,98977
2017-11-30T14:18:55.206Z,98992
2017-11-30T14:21:23.522Z,98993
2017-11-30T14:23:51.786Z,98997
2017-11-30T14:26:20.209Z,98994
2017-11-30T14:28:48.558Z,98987
2017-11-30T14:31:16.821Z,98991
2017-11-30T14:33:45.048Z,98995
2017-11-30T14:36:13.326Z,98984
2017-11-30T14:38:41.590Z,98988
2017-11-30T14:41:09.844Z,98996
2017-11-30T14:43:38.186Z,99004
2017-11-30T14:46:06.441Z,98989
2017-11-30T14:48:34.718Z,99002
2017-11-30T14:51:02.992Z,98997
2017-11-30T14:53:31.300Z,98995
2017-11-30T14:55:59.558Z,98996
2017-11-30T14:58:28.669Z,98993
2017-11-30T15:00:56.944Z,98994
2017-11-30T15:03:25.283Z,98990
2017-11-30T15:05:53.591Z,98993
2017-11-30T15:08:21.820Z,99002
2017-11-30T15:10:50.106Z,98988
2017-11-30T15:13:18.438Z,98991
2017-11-30T15:15:46.685Z,98996
2017-11-30T15:18:14.920Z,98984
2017-11-30T15:20:43.226Z,98996
2017-11-30T15:23:11.478Z,98990
2017-11-30T15:25:39.749Z,98996
2017-11-30T15:28:08.048Z,99011
2017-11-30T15:30:36.326Z,99006
2017-11-30T15:33:04.604Z,98987
2017-11-30T15:35:32.886Z,99001
2017-11-30T15:38:01.159Z,99007
2017-11-30T15:40:29.428Z,99007
2017-11-30T15:42:57.712Z,99009
2017-11-30T15:45:26.635Z,99009
2017-11-30T15:47:54.890Z,99004
2017-11-30T15:50:23.170Z,99017
2017-11-30T15:52:51.409Z,99016
2017-11-30T15:55:19.696Z,99017
2017-11-30T15:57:47.974Z,99020
2017-11-30T16:00:16.193Z,99017
2017-11-30T16:02:44.435Z,99016
2017-11-30T16:05:12.714Z,99022
2017-11-30T16:07:40.963Z,99017
2017-11-30T16:10:09.231Z,99016
2017-11-30T16:12:37.493Z,99017
2017-11-30T16:15:06.491Z,99024
2017-11-30T16:17:34.774Z,99020
2017-11-30T16:20:03.089Z,99023
2017-11-30T16:22:31.346Z,99029
2017-11-30T16:24:59.618Z,99017
2017-11-30T16:27:27.899Z,99023
2017-11-30T16:29:56.176Z,99034
2017-11-30T16:32:24.475Z,99029
2017-11-30T16:34:52.923Z,99026
2017-11-30T16:37:21.179Z,99026
2017-11-30T16:39:49.437Z,99028
2017-11-30T16:42:18.501Z,99023
2017-11-30T16:44:46.773Z,99030
2017-11-30T16:47:15.014Z,99032
2017-11-30T16:49:43.474Z,99028
2017-11-30T16:52:11.789Z,99029
2017-11-30T16:54:40.065Z,99034
2017-11-30T16:57:08.413Z,99027
2017-11-30T16:59:36.755Z,99041
2017-11-30T17:02:05.140Z,99035
2017-11-30T17:04:33.411Z,99042
2017-11-30T17:07:01.904Z,99038
2017-11-30T17:09:30.346Z,99050
2017-11-30T17:11:58.605Z,99050
2017-11-30T17:14:26.982Z,99056
2017-11-30T17:16:56.057Z,99052
2017-11-30T17:19:24.365Z,99056
2017-11-30T17:21:52.884Z,99064
2017-11-30T17:24:21.253Z,99060
2017-11-30T17:26:50.390Z,99073
2017-11-30T17:29:18.726Z,99063
2017-11-30T17:31:46.987Z,99067
2017-11-30T17:34:15.230Z,99071
2017-11-30T17:36:43.546Z,99071
2017-11-30T17:39:11.801Z,99084
2017-11-30T17:41:40.079Z,99084
2017-11-30T17:44:08.431Z,99081
2017-11-30T17:46:36.709Z,99086
2017-11-30T17:49:04.996Z,99094
2017-11-30T17:51:33.622Z,99099
2017-11-30T17:54:02.702Z,99100
2017-11-30T17:56:30.956Z,99102
2017-11-30T17:58:59.299Z,99097
2017-11-30T18:01:27.581Z,99103
2017-11-30T18:03:55.844Z,99115
2017-11-30T18:06:25.753Z,99116
2017-11-30T18:08:54.779Z,99122
2017-11-30T18:11:23.888Z,99120
2017-11-30T18:13:52.215Z,99123
2017-11-30T18:16:21.237Z,99130
2017-11-30T18:18:49.512Z,99134
2017-11-30T18:21:18.053Z,99145
2017-11-30T18:23:46.314Z,99148
2017-11-30T18:26:14.590Z,99145
2017-11-30T18:28:42.947Z,99145
2017-11-30T18:31:11.202Z,99152
2017-11-30T18:33:39.471Z,99151
2017-11-30T18:36:07.903Z,99155
2017-11-30T18:38:36.142Z,99154
2017-11-30T18:41:04.396Z,99163
2017-11-30T18:43:32.751Z,99162
2017-11-30T18:46:01.771Z,99162
2017-11-30T18:48:30.053Z,99177
2017-11-30T18:50:58.509Z,99167
2017-11-30T18:53:26.798Z,99176
2017-11-30T18:55:55.333Z,99180
2017-11-30T18:58:24.299Z,99185
2017-11-30T19:00:52.573Z,99173
2017-11-30T19:03:21.925Z,99186
2017-11-30T19:05:50.514Z,99186
2017-11-30T19:08:19.759Z,99197
2017-11-30T19:10:48.026Z,99204
2017-11-30T19:13:16.309Z,99197
2017-11-30T19:15:44.696Z,99197
2017-11-30T19:18:12.952Z,99199
2017-11-30T19:20:41.218Z,99198
2017-11-30T19:23:09.839Z,99204
2017-11-30T19:25:38.205Z,99207
2017-11-30T19:28:06.508Z,99214
2017-11-30T19:30:34.931Z,99210
2017-11-30T19:33:03.275Z,99220
2017-11-30T19:35:31.897Z,99219
2017-11-30T19:38:00.237Z,99214
2017-11-30T19:40:29.279Z,99219
2017-11-30T19:42:57.592Z,99223
2017-11-30T19:45:27.106Z,99224
2017-11-30T19:47:55.440Z,99228
2017-11-30T19:50:24.468Z,99233
2017-11-30T19:52:54.510Z,99235
2017-11-30T19:55:24.258Z,99233
2017-11-30T19:57:52.508Z,99244
2017-11-30T20:00:21.709Z,99240
2017-11-30T20:02:49.997Z,99252
2017-11-30T20:05:18.297Z,99255
2017-11-30T20:07:46.656Z,99261
2017-11-30T20:10:14.965Z,99268
2017-11-30T20:12:43.690Z,99271
2017-11-30T20:15:12.070Z,99272
2017-11-30T20:17:40.425Z,99275
2017-11-30T20:20:08.764Z,99282
2017-11-30T20:22:37.135Z,99289
2017-11-30T20:25:05.750Z,99285
2017-11-30T20:27:34.082Z,99290
2017-11-30T20:30:04.557Z,99288
2017-11-30T20:32:32.839Z,99296
2017-11-30T20:35:02.638Z,99290
2017-11-30T20:37:30.891Z,99296
2017-11-30T20:40:01.565Z,99297
2017-11-30T20:42:30.683Z,99289
2017-11-30T20:44:59.004Z,99290
2017-11-30T20:47:27.538Z,99297
2017-11-30T20:49:56.086Z,99296
2017-11-30T20:52:25.404Z,99305
2017-11-30T20:54:54.442Z,99313
2017-11-30T20:57:22.781Z,99312
2017-11-30T20:59:51.821Z,99316
2017-11-30T21:02:21.164Z,99327
2017-11-30T21:04:50.290Z,99323
2017-11-30T21:07:18.663Z,99319
2017-11-30T21:09:46.952Z,99325
2017-11-30T21:12:15.241Z,99326
2017-11-30T21:14:43.534Z,99328
2017-11-30T21:17:11.888Z,99325
2017-11-30T21:19:40.929Z,99340
2017-11-30T21:22:09.213Z,99341
2017-11-30T21:24:37.483Z,99345
2017-11-30T21:27:05.796Z,99340
2017-11-30T21:29:34.812Z,99349
2017-11-30T21:32:03.054Z,99346
2017-11-30T21:34:32.143Z,99346
2017-11-30T21:37:00.474Z,99351
2017-11-30T21:39:28.732Z,99351
2017-11-30T21:41:57.059Z,99355
2017-11-30T21:44:26.083Z,99359
2017-11-30T21:46:54.331Z,99359
2017-11-30T21:49:22.651Z,99360
2017-11-30T21:51:50.912Z,99350
2017-11-30T21:54:19.206Z,99362
2017-11-30T21:56:47.506Z,99349
2017-11-30T21:59:15.754Z,99358
2017-11-30T22:01:43.976Z,99352
2017-11-30T22:04:12.282Z,99362
2017-11-30T22:06:41.272Z,99359
2017-11-30T22:09:10.289Z,99370
2017-11-30T22:11:38.633Z,99362
2017-11-30T22:14:07.654Z,99364
2017-11-30T22:16:35.885Z,99375
2017-11-30T22:19:04.214Z,99379
2017-11-30T22:21:32.549Z,99380
2017-11-30T22:24:00.809Z,99383
2017-11-30T22:26:29.144Z,99390
2017-11-30T22:28:58.252Z,99395
2017-11-30T22:31:26.493Z,99395
2017-11-30T22:33:54.867Z,99391
2017-11-30T22:36:23.102Z,99390
2017-11-30T22:38:51.358Z,99397
2017-11-30T22:41:19.702Z,99405
2017-11-30T22:43:47.959Z,99406
2017-11-30T22:46:16.964Z,99401
2017-11-30T22:48:46.005Z,99406
2017-11-30T22:51:14.306Z,99405
2017-11-30T22:53:45.061Z,99409
2017-11-30T22:56:13.364Z,99403
2017-11-30T22:58:41.617Z,99401
2017-11-30T23:01:09.938Z,99404
2017-11-30T23:03:38.174Z,99401
2017-11-30T23:06:06.416Z,99408
2017-11-30T23:08:34.683Z,99402
2017-11-30T23:11:02.969Z,99407
2017-11-30T23:13:31.526Z,99415
2017-11-30T23:15:59.889Z,99415
2017-11-30T23:18:28.207Z,99408
2017-11-30T23:20:57.230Z,99413
2017-11-30T23:23:25.514Z,99402
2017-11-30T23:25:55.137Z,99419
2017-11-30T23:28:23.390Z,99423
2017-11-30T23:30:51.701Z,99416
2017-11-30T23:33:20.013Z,99420
2017-11-30T23:35:48.261Z,99415
2017-11-30T23:38:16.510Z,99422
2017-11-30T23:40:44.906Z,99423
2017-11-30T23:43:13.192Z,99427
2017-11-30T23:45:41.417Z,99420
2017-11-30T23:48:09.770Z,99430
2017-11-30T23:50:38.044Z,99432
2017-11-30T23:53:06.289Z,99423
2017-11-30T23:55:35.361Z,99427
2017-11-30T23:58:03.581Z,99432
